Oozu Maru — JD4106 — position and weather

sailwx.info

Track history (hours):
 
Tides and Currents Weather Stations Pressure Air Temp Water Temp Dewpoint Dewpoint Depression Visibility Wind Speed Wind Dir Waves Ship Positions

Oozu Maru

Last reported at 2017-Sep-13 11:49 UTC. Time now 2017-Sep-22 04:19 UTC.
Position N 34°36' E 134°56'.
Warning: this ship's position is 8 days out of date.

Length 90 m; draft 5.7 m.

Type: Tanker. MMSI: 431008812.

Date/timePositionNaut miles runAvg speedWind from/ knotsBaromVisibWave heightAir tempDewpointWater temp
2017-Sep-13 11:49N 34°36' E 134°56'512.3
2017-Sep-13 11:26N 34°37' E 135°01'511.5
2017-Sep-13 11:00N 34°34' E 135°06'713.4
2017-Sep-13 10:30N 34°28' E 135°04'713.4
2017-Sep-13 10:00N 34°21' E 135°01'713.3
2017-Sep-13 09:30N 34°15' E 134°59'714.3
2017-Sep-13 09:01N 34°08' E 134°60'914.5
2017-Sep-13 08:24N 33°59' E 135°00'22810.6
2017-Sep-12 10:53N 34°55' E 139°28'411.3
2017-Sep-12 10:31N 34°58' E 139°32'612.1
2017-Sep-12 10:01N 35°02' E 139°38'612.8
2017-Sep-12 09:31N 35°06' E 139°43'713.0
2017-Sep-12 09:00N 35°13' E 139°46'611.4
2017-Sep-12 08:30N 35°18' E 139°44'612.4
2017-Sep-12 08:00N 35°24' E 139°43'713.3
2017-Sep-12 07:31N 35°28' E 139°49'713.2
2017-Sep-12 07:01N 35°31' E 139°57'7 1.0
2017-Sep-12 00:03N 35°33' E 140°05'0 0.9
2017-Sep-11 23:55N 35°33' E 140°05'2 4.0
2017-Sep-11 23:21N 35°33' E 140°02'0 0.0
2017-Sep-11 23:00N 35°33' E 140°02'0 0.0
2017-Sep-11 22:30N 35°33' E 140°02'0 0.1
2017-Sep-11 21:59N 35°33' E 140°02'0 0.1
2017-Sep-11 21:28N 35°33' E 140°02'0 0.0
2017-Sep-11 20:58N 35°33' E 140°02'0 0.0
2017-Sep-11 20:25N 35°33' E 140°02'0 0.0
2017-Sep-11 19:58N 35°33' E 140°02'0 0.0
2017-Sep-11 19:28N 35°33' E 140°02'0 0.0
2017-Sep-11 18:58N 35°33' E 140°02'0 0.0
2017-Sep-11 17:37N 35°33' E 140°02'0 0.0
2017-Sep-11 17:22N 35°33' E 140°02'0 0.0
2017-Sep-11 16:52N 35°33' E 140°02'0 0.0
2017-Sep-11 16:25N 35°33' E 140°02'0 0.0
2017-Sep-11 15:58N 35°33' E 140°02'0 0.1
2017-Sep-11 15:25N 35°33' E 140°02'0 0.1
2017-Sep-11 14:52N 35°33' E 140°02'0 0.1
2017-Sep-11 14:10N 35°33' E 140°02'0 0.0
2017-Sep-11 13:43N 35°33' E 140°02'0 0.0
2017-Sep-11 12:04N 35°33' E 140°02'0 0.0
2017-Sep-11 11:58N 35°33' E 140°02'0 0.0
2017-Sep-11 10:19N 35°33' E 140°02'0 0.0
2017-Sep-11 09:58N 35°33' E 140°02'0 0.0
2017-Sep-11 07:46N 35°33' E 140°02'0 0.0
2017-Sep-11 07:04N 35°33' E 140°02'0 0.0
2017-Sep-11 06:58N 35°33' E 140°02'0 0.0
2017-Sep-11 06:25N 35°33' E 140°02'0 0.0
2017-Sep-11 05:52N 35°33' E 140°02'0 0.0
2017-Sep-11 05:25N 35°33' E 140°02'1 3.3
2017-Sep-11 05:00N 35°33' E 140°00'714.5
2017-Sep-11 04:30N 35°29' E 139°53'714.3
2017-Sep-11 04:00N 35°24' E 139°47'612.5
2017-Sep-11 03:31N 35°18' E 139°44'612.2
2017-Sep-11 03:01N 35°13' E 139°47'714.4
2017-Sep-11 02:30N 35°06' E 139°43'714.8
2017-Sep-11 02:01N 35°01' E 139°37'815.1
2017-Sep-11 01:29N 34°56' E 139°29'23113.1
2017-Sep-10 07:49N 33°52' E 134°60'515.3
2017-Sep-10 07:28N 33°56' E 134°56'  
2017-Sep-06 14:38N 33°56' E 135°00'215.1
2017-Sep-06 14:30N 33°58' E 135°00'714.9
2017-Sep-06 14:00N 34°06' E 134°60'714.5
2017-Sep-06 13:30N 34°13' E 134°59'713.5
2017-Sep-06 13:00N 34°20' E 134°59'713.0
2017-Sep-06 12:29N 34°26' E 135°01'713.6
2017-Sep-06 12:00N 34°33' E 135°03'5 9.6
2017-Sep-06 11:30N 34°37' E 135°01'  
Track history (hours):
 
Tides and Currents Weather Stations Pressure Air Temp Water Temp Dewpoint Dewpoint Depression Visibility Wind Speed Wind Dir Waves Ship Positions

Oozu Maru

Last reported at 2017-Sep-13 11:49 UTC. Time now 2017-Sep-22 04:19 UTC.
Position N 34°36' E 134°56'.
Warning: this ship's position is 8 days out of date.

Length 90 m; draft 5.7 m.

Type: Tanker. MMSI: 431008812.

Date/timePositionNaut miles runAvg speedWind from/ knotsBaromVisibWave heightAir tempDewpointWater temp
2017-Sep-13 11:49N 34°36' E 134°56'512.3
2017-Sep-13 11:26N 34°37' E 135°01'511.5
2017-Sep-13 11:00N 34°34' E 135°06'713.4
2017-Sep-13 10:30N 34°28' E 135°04'713.4
2017-Sep-13 10:00N 34°21' E 135°01'713.3
2017-Sep-13 09:30N 34°15' E 134°59'714.3
2017-Sep-13 09:01N 34°08' E 134°60'914.5
2017-Sep-13 08:24N 33°59' E 135°00'22810.6
2017-Sep-12 10:53N 34°55' E 139°28'411.3
2017-Sep-12 10:31N 34°58' E 139°32'612.1
2017-Sep-12 10:01N 35°02' E 139°38'612.8
2017-Sep-12 09:31N 35°06' E 139°43'713.0
2017-Sep-12 09:00N 35°13' E 139°46'611.4
2017-Sep-12 08:30N 35°18' E 139°44'612.4
2017-Sep-12 08:00N 35°24' E 139°43'713.3
2017-Sep-12 07:31N 35°28' E 139°49'713.2
2017-Sep-12 07:01N 35°31' E 139°57'7 1.0
2017-Sep-12 00:03N 35°33' E 140°05'0 0.9
2017-Sep-11 23:55N 35°33' E 140°05'2 4.0
2017-Sep-11 23:21N 35°33' E 140°02'0 0.0
2017-Sep-11 23:00N 35°33' E 140°02'0 0.0
2017-Sep-11 22:30N 35°33' E 140°02'0 0.1
2017-Sep-11 21:59N 35°33' E 140°02'0 0.1
2017-Sep-11 21:28N 35°33' E 140°02'0 0.0
2017-Sep-11 20:58N 35°33' E 140°02'0 0.0
2017-Sep-11 20:25N 35°33' E 140°02'0 0.0
2017-Sep-11 19:58N 35°33' E 140°02'0 0.0
2017-Sep-11 19:28N 35°33' E 140°02'0 0.0
2017-Sep-11 18:58N 35°33' E 140°02'0 0.0
2017-Sep-11 17:37N 35°33' E 140°02'0 0.0
2017-Sep-11 17:22N 35°33' E 140°02'0 0.0
2017-Sep-11 16:52N 35°33' E 140°02'0 0.0
2017-Sep-11 16:25N 35°33' E 140°02'0 0.0
2017-Sep-11 15:58N 35°33' E 140°02'0 0.1
2017-Sep-11 15:25N 35°33' E 140°02'0 0.1
2017-Sep-11 14:52N 35°33' E 140°02'0 0.1
2017-Sep-11 14:10N 35°33' E 140°02'0 0.0
2017-Sep-11 13:43N 35°33' E 140°02'0 0.0
2017-Sep-11 12:04N 35°33' E 140°02'0 0.0
2017-Sep-11 11:58N 35°33' E 140°02'0 0.0
2017-Sep-11 10:19N 35°33' E 140°02'0 0.0
2017-Sep-11 09:58N 35°33' E 140°02'0 0.0
2017-Sep-11 07:46N 35°33' E 140°02'0 0.0
2017-Sep-11 07:04N 35°33' E 140°02'0 0.0
2017-Sep-11 06:58N 35°33' E 140°02'0 0.0
2017-Sep-11 06:25N 35°33' E 140°02'0 0.0
2017-Sep-11 05:52N 35°33' E 140°02'0 0.0
2017-Sep-11 05:25N 35°33' E 140°02'1 3.3
2017-Sep-11 05:00N 35°33' E 140°00'714.5
2017-Sep-11 04:30N 35°29' E 139°53'714.3
2017-Sep-11 04:00N 35°24' E 139°47'612.5
2017-Sep-11 03:31N 35°18' E 139°44'612.2
2017-Sep-11 03:01N 35°13' E 139°47'714.4
2017-Sep-11 02:30N 35°06' E 139°43'714.8
2017-Sep-11 02:01N 35°01' E 139°37'815.1
2017-Sep-11 01:29N 34°56' E 139°29'23113.1
2017-Sep-10 07:49N 33°52' E 134°60'515.3
2017-Sep-10 07:28N 33°56' E 134°56'  
2017-Sep-06 14:38N 33°56' E 135°00'215.1
2017-Sep-06 14:30N 33°58' E 135°00'714.9
2017-Sep-06 14:00N 34°06' E 134°60'714.5
2017-Sep-06 13:30N 34°13' E 134°59'713.5
2017-Sep-06 13:00N 34°20' E 134°59'713.0
2017-Sep-06 12:29N 34°26' E 135°01'713.6
2017-Sep-06 12:00N 34°33' E 135°03'5 9.6
2017-Sep-06 11:30N 34°37' E 135°01'  

Dump ship's entire track history